sensor_id;sensor_type;location;lat;lon;timestamp;temperature;humidity
16408;DHT22;8313;49.894;8.084;2024-03-25T00:02:09;6.50;99.90
16408;DHT22;8313;49.894;8.084;2024-03-25T00:04:35;6.60;99.90
16408;DHT22;8313;49.894;8.084;2024-03-25T00:07:01;6.50;99.90
16408;DHT22;8313;49.894;8.084;2024-03-25T00:09:27;6.50;99.90
16408;DHT22;8313;49.894;8.084;2024-03-25T00:11:53;6.50;99.90
16408;DHT22;8313;49.894;8.084;2024-03-25T00:14:22;6.50;99.90
16408;DHT22;8313;49.894;8.084;2024-03-25T00:16:49;6.50;99.90
16408;DHT22;8313;49.894;8.084;2024-03-25T00:19:15;6.50;99.90
16408;DHT22;8313;49.894;8.084;2024-03-25T00:21:40;6.50;99.90
16408;DHT22;8313;49.894;8.084;2024-03-25T00:24:07;6.40;99.90
16408;DHT22;8313;49.894;8.084;2024-03-25T00:26:33;6.40;99.90
16408;DHT22;8313;49.894;8.084;2024-03-25T00:28:59;6.40;99.90
16408;DHT22;8313;49.894;8.084;2024-03-25T00:31:25;6.40;99.90
16408;DHT22;8313;49.894;8.084;2024-03-25T00:33:50;6.40;99.90
16408;DHT22;8313;49.894;8.084;2024-03-25T00:36:16;6.40;99.90
16408;DHT22;8313;49.894;8.084;2024-03-25T00:38:43;6.40;99.90
16408;DHT22;8313;49.894;8.084;2024-03-25T00:41:09;6.40;99.90
16408;DHT22;8313;49.894;8.084;2024-03-25T00:43:34;6.40;99.90
16408;DHT22;8313;49.894;8.084;2024-03-25T00:46:00;6.30;99.90
16408;DHT22;8313;49.894;8.084;2024-03-25T00:48:26;6.30;99.90
16408;DHT22;8313;49.894;8.084;2024-03-25T00:50:52;6.30;99.90
16408;DHT22;8313;49.894;8.084;2024-03-25T00:53:17;6.30;99.90
16408;DHT22;8313;49.894;8.084;2024-03-25T00:55:44;6.30;99.90
16408;DHT22;8313;49.894;8.084;2024-03-25T00:58:09;6.30;99.90
16408;DHT22;8313;49.894;8.084;2024-03-25T01:00:35;6.30;99.90
16408;DHT22;8313;49.894;8.084;2024-03-25T01:03:01;6.20;99.90
16408;DHT22;8313;49.894;8.084;2024-03-25T01:05:27;6.20;99.90
16408;DHT22;8313;49.894;8.084;2024-03-25T01:07:53;6.20;99.90
16408;DHT22;8313;49.894;8.084;2024-03-25T01:10:18;6.20;99.90
16408;DHT22;8313;49.894;8.084;2024-03-25T01:12:44;6.20;99.90
16408;DHT22;8313;49.894;8.084;2024-03-25T01:15:10;6.20;99.90
16408;DHT22;8313;49.894;8.084;2024-03-25T01:17:37;6.20;99.90
16408;DHT22;8313;49.894;8.084;2024-03-25T01:20:03;6.10;99.90
16408;DHT22;8313;49.894;8.084;2024-03-25T01:22:32;6.10;99.90
16408;DHT22;8313;49.894;8.084;2024-03-25T01:24:57;6.00;99.90
16408;DHT22;8313;49.894;8.084;2024-03-25T01:27:23;6.00;99.90
16408;DHT22;8313;49.894;8.084;2024-03-25T01:29:49;6.00;99.90
16408;DHT22;8313;49.894;8.084;2024-03-25T01:32:14;6.10;99.90
16408;DHT22;8313;49.894;8.084;2024-03-25T01:34:40;6.00;99.90
16408;DHT22;8313;49.894;8.084;2024-03-25T01:37:06;6.10;99.90
16408;DHT22;8313;49.894;8.084;2024-03-25T01:39:31;6.10;99.90
16408;DHT22;8313;49.894;8.084;2024-03-25T01:41:57;6.10;99.90
16408;DHT22;8313;49.894;8.084;2024-03-25T01:44:23;6.10;99.90
16408;DHT22;8313;49.894;8.084;2024-03-25T01:46:50;6.20;99.90
16408;DHT22;8313;49.894;8.084;2024-03-25T01:49:18;6.00;99.90
16408;DHT22;8313;49.894;8.084;2024-03-25T01:51:44;6.00;99.90
16408;DHT22;8313;49.894;8.084;2024-03-25T01:54:10;6.10;99.90
16408;DHT22;8313;49.894;8.084;2024-03-25T01:56:36;6.10;99.90
16408;DHT22;8313;49.894;8.084;2024-03-25T01:59:02;6.10;99.90
16408;DHT22;8313;49.894;8.084;2024-03-25T02:01:29;6.10;99.90
16408;DHT22;8313;49.894;8.084;2024-03-25T02:03:55;6.00;99.90
16408;DHT22;8313;49.894;8.084;2024-03-25T02:06:21;6.00;99.90
16408;DHT22;8313;49.894;8.084;2024-03-25T02:08:48;5.90;99.90
16408;DHT22;8313;49.894;8.084;2024-03-25T02:11:15;5.80;99.90
16408;DHT22;8313;49.894;8.084;2024-03-25T02:13:41;5.80;99.90
16408;DHT22;8313;49.894;8.084;2024-03-25T02:16:07;5.90;99.90
16408;DHT22;8313;49.894;8.084;2024-03-25T02:18:33;5.90;99.90
16408;DHT22;8313;49.894;8.084;2024-03-25T02:20:59;5.80;99.90
16408;DHT22;8313;49.894;8.084;2024-03-25T02:23:28;5.80;99.90
16408;DHT22;8313;49.894;8.084;2024-03-25T02:25:54;5.70;99.90
16408;DHT22;8313;49.894;8.084;2024-03-25T02:28:20;5.70;99.90
16408;DHT22;8313;49.894;8.084;2024-03-25T02:30:45;5.70;99.90
16408;DHT22;8313;49.894;8.084;2024-03-25T02:33:11;5.70;99.90
16408;DHT22;8313;49.894;8.084;2024-03-25T02:35:38;5.70;99.90
16408;DHT22;8313;49.894;8.084;2024-03-25T02:38:05;5.60;99.90
16408;DHT22;8313;49.894;8.084;2024-03-25T02:40:30;5.60;99.90
16408;DHT22;8313;49.894;8.084;2024-03-25T02:42:57;5.60;99.90
16408;DHT22;8313;49.894;8.084;2024-03-25T02:45:23;5.60;99.90
16408;DHT22;8313;49.894;8.084;2024-03-25T02:47:50;5.60;99.90
16408;DHT22;8313;49.894;8.084;2024-03-25T02:50:15;5.50;99.90
16408;DHT22;8313;49.894;8.084;2024-03-25T02:52:41;5.50;99.90
16408;DHT22;8313;49.894;8.084;2024-03-25T02:55:07;5.50;99.90
16408;DHT22;8313;49.894;8.084;2024-03-25T02:57:33;5.40;99.90
16408;DHT22;8313;49.894;8.084;2024-03-25T02:59:58;5.30;99.90
16408;DHT22;8313;49.894;8.084;2024-03-25T03:02:24;5.40;99.90
16408;DHT22;8313;49.894;8.084;2024-03-25T03:04:50;5.40;99.90
16408;DHT22;8313;49.894;8.084;2024-03-25T03:07:15;5.30;99.90
16408;DHT22;8313;49.894;8.084;2024-03-25T03:09:41;5.40;99.90
16408;DHT22;8313;49.894;8.084;2024-03-25T03:12:07;5.40;99.90
16408;DHT22;8313;49.894;8.084;2024-03-25T03:14:32;5.50;99.90
16408;DHT22;8313;49.894;8.084;2024-03-25T03:16:58;5.40;99.90
16408;DHT22;8313;49.894;8.084;2024-03-25T03:19:25;5.50;99.90
16408;DHT22;8313;49.894;8.084;2024-03-25T03:21:52;5.60;99.90
16408;DHT22;8313;49.894;8.084;2024-03-25T03:24:18;5.70;99.90
16408;DHT22;8313;49.894;8.084;2024-03-25T03:26:44;5.80;99.90
16408;DHT22;8313;49.894;8.084;2024-03-25T03:29:10;5.90;99.90
16408;DHT22;8313;49.894;8.084;2024-03-25T03:31:36;5.90;99.90
16408;DHT22;8313;49.894;8.084;2024-03-25T03:34:02;5.90;99.90
16408;DHT22;8313;49.894;8.084;2024-03-25T03:36:27;5.90;99.90
16408;DHT22;8313;49.894;8.084;2024-03-25T03:38:53;5.90;99.90
16408;DHT22;8313;49.894;8.084;2024-03-25T03:41:19;6.00;99.90
16408;DHT22;8313;49.894;8.084;2024-03-25T03:43:45;6.00;99.90
16408;DHT22;8313;49.894;8.084;2024-03-25T03:46:11;6.00;99.90
16408;DHT22;8313;49.894;8.084;2024-03-25T03:48:37;6.00;99.90
16408;DHT22;8313;49.894;8.084;2024-03-25T03:51:07;6.00;99.90
16408;DHT22;8313;49.894;8.084;2024-03-25T03:53:33;6.00;99.90
16408;DHT22;8313;49.894;8.084;2024-03-25T03:56:04;6.00;99.90
16408;DHT22;8313;49.894;8.084;2024-03-25T03:58:31;6.00;99.90
16408;DHT22;8313;49.894;8.084;2024-03-25T04:00:57;6.00;99.90
16408;DHT22;8313;49.894;8.084;2024-03-25T04:03:23;5.90;99.90
16408;DHT22;8313;49.894;8.084;2024-03-25T04:05:48;5.80;99.90
16408;DHT22;8313;49.894;8.084;2024-03-25T04:08:14;5.90;99.90
16408;DHT22;8313;49.894;8.084;2024-03-25T04:10:40;5.90;99.90
16408;DHT22;8313;49.894;8.084;2024-03-25T04:13:07;5.90;99.90
16408;DHT22;8313;49.894;8.084;2024-03-25T04:15:37;5.80;99.90
16408;DHT22;8313;49.894;8.084;2024-03-25T04:18:04;5.80;99.90
16408;DHT22;8313;49.894;8.084;2024-03-25T04:20:35;5.80;99.90
16408;DHT22;8313;49.894;8.084;2024-03-25T04:23:01;5.70;99.90
16408;DHT22;8313;49.894;8.084;2024-03-25T04:25:26;5.70;99.90
16408;DHT22;8313;49.894;8.084;2024-03-25T04:27:52;5.80;99.90
16408;DHT22;8313;49.894;8.084;2024-03-25T04:30:18;5.70;99.90
16408;DHT22;8313;49.894;8.084;2024-03-25T04:32:45;5.70;99.90
16408;DHT22;8313;49.894;8.084;2024-03-25T04:35:10;5.70;99.90
16408;DHT22;8313;49.894;8.084;2024-03-25T04:37:36;5.70;99.90
16408;DHT22;8313;49.894;8.084;2024-03-25T04:40:03;5.70;99.90
16408;DHT22;8313;49.894;8.084;2024-03-25T04:42:29;5.60;99.90
16408;DHT22;8313;49.894;8.084;2024-03-25T04:44:54;5.60;99.90
16408;DHT22;8313;49.894;8.084;2024-03-25T04:47:20;5.60;99.90
16408;DHT22;8313;49.894;8.084;2024-03-25T04:49:46;5.70;99.90
16408;DHT22;8313;49.894;8.084;2024-03-25T04:52:12;5.70;99.90
16408;DHT22;8313;49.894;8.084;2024-03-25T04:54:44;5.70;99.90
16408;DHT22;8313;49.894;8.084;2024-03-25T04:57:09;5.60;99.90
16408;DHT22;8313;49.894;8.084;2024-03-25T04:59:35;5.60;99.90
16408;DHT22;8313;49.894;8.084;2024-03-25T05:02:01;5.60;99.90
16408;DHT22;8313;49.894;8.084;2024-03-25T05:04:27;5.60;99.90
16408;DHT22;8313;49.894;8.084;2024-03-25T05:06:52;5.70;99.90
16408;DHT22;8313;49.894;8.084;2024-03-25T05:09:18;5.70;99.90
16408;DHT22;8313;49.894;8.084;2024-03-25T05:11:44;5.70;99.90
16408;DHT22;8313;49.894;8.084;2024-03-25T05:14:10;5.70;99.90
16408;DHT22;8313;49.894;8.084;2024-03-25T05:16:35;5.60;99.90
16408;DHT22;8313;49.894;8.084;2024-03-25T05:19:02;5.60;99.90
16408;DHT22;8313;49.894;8.084;2024-03-25T05:21:30;5.60;99.90
16408;DHT22;8313;49.894;8.084;2024-03-25T05:23:55;5.60;99.90
16408;DHT22;8313;49.894;8.084;2024-03-25T05:26:21;5.60;99.90
16408;DHT22;8313;49.894;8.084;2024-03-25T05:28:52;5.60;99.90
16408;DHT22;8313;49.894;8.084;2024-03-25T05:31:18;5.60;99.90
16408;DHT22;8313;49.894;8.084;2024-03-25T05:33:44;5.50;99.90
16408;DHT22;8313;49.894;8.084;2024-03-25T05:36:09;5.50;99.90
16408;DHT22;8313;49.894;8.084;2024-03-25T05:38:35;5.50;99.90
16408;DHT22;8313;49.894;8.084;2024-03-25T05:41:00;5.50;99.90
16408;DHT22;8313;49.894;8.084;2024-03-25T05:43:26;5.40;99.90
16408;DHT22;8313;49.894;8.084;2024-03-25T05:45:55;5.40;99.90
16408;DHT22;8313;49.894;8.084;2024-03-25T05:48:24;5.30;99.90
16408;DHT22;8313;49.894;8.084;2024-03-25T05:53:29;5.30;99.90
16408;DHT22;8313;49.894;8.084;2024-03-25T05:55:55;5.30;99.90
16408;DHT22;8313;49.894;8.084;2024-03-25T05:58:21;5.40;99.90
16408;DHT22;8313;49.894;8.084;2024-03-25T06:00:50;5.40;99.90
16408;DHT22;8313;49.894;8.084;2024-03-25T06:03:16;5.30;99.90
16408;DHT22;8313;49.894;8.084;2024-03-25T06:05:45;5.40;99.90
16408;DHT22;8313;49.894;8.084;2024-03-25T06:08:11;5.40;99.90
16408;DHT22;8313;49.894;8.084;2024-03-25T06:10:52;5.40;99.90
16408;DHT22;8313;49.894;8.084;2024-03-25T06:13:19;5.40;99.90
16408;DHT22;8313;49.894;8.084;2024-03-25T06:15:45;5.40;99.90
16408;DHT22;8313;49.894;8.084;2024-03-25T06:18:11;5.30;99.90
16408;DHT22;8313;49.894;8.084;2024-03-25T06:20:37;5.30;99.90
16408;DHT22;8313;49.894;8.084;2024-03-25T06:23:03;5.40;99.90
16408;DHT22;8313;49.894;8.084;2024-03-25T06:25:30;5.40;99.90
16408;DHT22;8313;49.894;8.084;2024-03-25T06:27:56;5.40;99.90
16408;DHT22;8313;49.894;8.084;2024-03-25T06:30:22;5.40;99.90
16408;DHT22;8313;49.894;8.084;2024-03-25T06:33:06;5.40;99.90
16408;DHT22;8313;49.894;8.084;2024-03-25T06:35:50;5.40;99.90
16408;DHT22;8313;49.894;8.084;2024-03-25T06:38:17;5.40;99.90
16408;DHT22;8313;49.894;8.084;2024-03-25T06:40:44;5.40;99.90
16408;DHT22;8313;49.894;8.084;2024-03-25T06:43:10;5.40;99.90
16408;DHT22;8313;49.894;8.084;2024-03-25T06:45:36;5.30;99.90
16408;DHT22;8313;49.894;8.084;2024-03-25T06:48:01;5.40;99.90
16408;DHT22;8313;49.894;8.084;2024-03-25T06:50:27;5.40;99.90
16408;DHT22;8313;49.894;8.084;2024-03-25T06:52:52;5.30;99.90
16408;DHT22;8313;49.894;8.084;2024-03-25T06:55:18;5.10;99.90
16408;DHT22;8313;49.894;8.084;2024-03-25T06:57:48;5.10;99.90
16408;DHT22;8313;49.894;8.084;2024-03-25T07:00:14;5.20;99.90
16408;DHT22;8313;49.894;8.084;2024-03-25T07:02:40;5.30;99.90
16408;DHT22;8313;49.894;8.084;2024-03-25T07:05:07;5.40;99.90
16408;DHT22;8313;49.894;8.084;2024-03-25T07:07:33;5.40;99.90
16408;DHT22;8313;49.894;8.084;2024-03-25T07:10:02;5.40;99.90
16408;DHT22;8313;49.894;8.084;2024-03-25T07:12:28;5.40;99.90
16408;DHT22;8313;49.894;8.084;2024-03-25T07:14:54;5.50;99.90
16408;DHT22;8313;49.894;8.084;2024-03-25T07:17:19;5.50;99.90
16408;DHT22;8313;49.894;8.084;2024-03-25T07:19:47;5.60;99.90
16408;DHT22;8313;49.894;8.084;2024-03-25T07:22:13;5.60;99.90
16408;DHT22;8313;49.894;8.084;2024-03-25T07:24:38;5.70;99.90
16408;DHT22;8313;49.894;8.084;2024-03-25T07:27:04;5.80;99.90
16408;DHT22;8313;49.894;8.084;2024-03-25T07:29:30;5.80;99.90
16408;DHT22;8313;49.894;8.084;2024-03-25T07:31:55;5.80;99.90
16408;DHT22;8313;49.894;8.084;2024-03-25T07:34:21;5.90;99.90
16408;DHT22;8313;49.894;8.084;2024-03-25T07:36:47;5.90;99.90
16408;DHT22;8313;49.894;8.084;2024-03-25T07:39:14;6.00;99.90
16408;DHT22;8313;49.894;8.084;2024-03-25T07:41:40;6.00;99.90
16408;DHT22;8313;49.894;8.084;2024-03-25T07:44:06;6.10;99.90
16408;DHT22;8313;49.894;8.084;2024-03-25T07:46:31;6.20;99.90
16408;DHT22;8313;49.894;8.084;2024-03-25T07:48:57;6.30;99.90
16408;DHT22;8313;49.894;8.084;2024-03-25T07:51:23;6.30;99.90
16408;DHT22;8313;49.894;8.084;2024-03-25T07:53:49;6.40;99.90
16408;DHT22;8313;49.894;8.084;2024-03-25T07:56:15;6.40;99.90
16408;DHT22;8313;49.894;8.084;2024-03-25T07:58:41;6.50;99.90
16408;DHT22;8313;49.894;8.084;2024-03-25T08:01:07;6.60;99.90
16408;DHT22;8313;49.894;8.084;2024-03-25T08:03:33;6.70;99.90
16408;DHT22;8313;49.894;8.084;2024-03-25T08:05:59;6.80;99.90
16408;DHT22;8313;49.894;8.084;2024-03-25T08:08:25;6.90;99.90
16408;DHT22;8313;49.894;8.084;2024-03-25T08:10:50;6.90;99.90
16408;DHT22;8313;49.894;8.084;2024-03-25T08:13:18;6.90;99.90
16408;DHT22;8313;49.894;8.084;2024-03-25T08:15:45;7.10;99.90
16408;DHT22;8313;49.894;8.084;2024-03-25T08:18:11;7.20;99.90
16408;DHT22;8313;49.894;8.084;2024-03-25T08:20:38;7.40;99.90
16408;DHT22;8313;49.894;8.084;2024-03-25T08:23:04;7.60;99.90
16408;DHT22;8313;49.894;8.084;2024-03-25T08:25:29;7.80;99.90
16408;DHT22;8313;49.894;8.084;2024-03-25T08:27:55;7.90;99.90
16408;DHT22;8313;49.894;8.084;2024-03-25T08:30:21;8.00;99.90
16408;DHT22;8313;49.894;8.084;2024-03-25T08:32:46;8.10;99.90
16408;DHT22;8313;49.894;8.084;2024-03-25T08:35:12;8.10;99.90
16408;DHT22;8313;49.894;8.084;2024-03-25T08:37:38;8.20;99.90
16408;DHT22;8313;49.894;8.084;2024-03-25T08:40:04;8.20;99.90
16408;DHT22;8313;49.894;8.084;2024-03-25T08:42:30;8.40;99.90
16408;DHT22;8313;49.894;8.084;2024-03-25T08:44:56;8.40;99.90
16408;DHT22;8313;49.894;8.084;2024-03-25T08:47:22;8.50;99.90
16408;DHT22;8313;49.894;8.084;2024-03-25T08:49:48;8.60;99.90
16408;DHT22;8313;49.894;8.084;2024-03-25T08:52:13;8.60;99.90
16408;DHT22;8313;49.894;8.084;2024-03-25T08:54:39;8.70;99.90
16408;DHT22;8313;49.894;8.084;2024-03-25T08:57:04;9.00;99.90
16408;DHT22;8313;49.894;8.084;2024-03-25T08:59:30;9.10;99.90
16408;DHT22;8313;49.894;8.084;2024-03-25T09:01:56;9.10;99.90
16408;DHT22;8313;49.894;8.084;2024-03-25T09:04:21;9.10;99.90
16408;DHT22;8313;49.894;8.084;2024-03-25T09:06:47;9.20;99.90
16408;DHT22;8313;49.894;8.084;2024-03-25T09:09:13;9.30;99.90
16408;DHT22;8313;49.894;8.084;2024-03-25T09:11:57;9.50;99.90
16408;DHT22;8313;49.894;8.084;2024-03-25T09:14:23;9.60;99.90
16408;DHT22;8313;49.894;8.084;2024-03-25T09:16:48;9.80;99.90
16408;DHT22;8313;49.894;8.084;2024-03-25T09:19:14;10.00;99.90
16408;DHT22;8313;49.894;8.084;2024-03-25T09:21:40;9.90;99.90
16408;DHT22;8313;49.894;8.084;2024-03-25T09:24:06;9.80;99.90
16408;DHT22;8313;49.894;8.084;2024-03-25T09:26:31;9.80;99.90
16408;DHT22;8313;49.894;8.084;2024-03-25T09:28:57;9.80;99.90
16408;DHT22;8313;49.894;8.084;2024-03-25T09:31:23;10.00;99.90
16408;DHT22;8313;49.894;8.084;2024-03-25T09:33:48;10.20;99.90
16408;DHT22;8313;49.894;8.084;2024-03-25T09:36:14;10.50;99.90
16408;DHT22;8313;49.894;8.084;2024-03-25T09:38:40;10.70;99.90
16408;DHT22;8313;49.894;8.084;2024-03-25T09:41:08;10.90;99.90
16408;DHT22;8313;49.894;8.084;2024-03-25T09:43:44;10.90;99.90
16408;DHT22;8313;49.894;8.084;2024-03-25T09:46:13;10.90;99.90
16408;DHT22;8313;49.894;8.084;2024-03-25T09:48:40;10.90;99.90
16408;DHT22;8313;49.894;8.084;2024-03-25T09:51:07;11.00;99.90
16408;DHT22;8313;49.894;8.084;2024-03-25T09:53:34;11.10;99.90
16408;DHT22;8313;49.894;8.084;2024-03-25T09:56:00;11.20;99.90
16408;DHT22;8313;49.894;8.084;2024-03-25T09:58:26;11.30;99.90
16408;DHT22;8313;49.894;8.084;2024-03-25T10:00:53;11.20;99.90
16408;DHT22;8313;49.894;8.084;2024-03-25T10:03:20;11.20;99.90
16408;DHT22;8313;49.894;8.084;2024-03-25T10:05:46;11.20;99.90
16408;DHT22;8313;49.894;8.084;2024-03-25T10:08:12;11.20;99.90
16408;DHT22;8313;49.894;8.084;2024-03-25T10:10:37;11.20;99.90
16408;DHT22;8313;49.894;8.084;2024-03-25T10:13:06;11.30;99.90
16408;DHT22;8313;49.894;8.084;2024-03-25T10:15:32;11.50;99.90
16408;DHT22;8313;49.894;8.084;2024-03-25T10:17:58;11.70;99.90
16408;DHT22;8313;49.894;8.084;2024-03-25T10:20:24;12.00;99.90
16408;DHT22;8313;49.894;8.084;2024-03-25T10:22:51;12.10;99.90
16408;DHT22;8313;49.894;8.084;2024-03-25T10:27:59;12.30;99.90
16408;DHT22;8313;49.894;8.084;2024-03-25T10:30:26;12.30;99.90
16408;DHT22;8313;49.894;8.084;2024-03-25T10:33:18;12.30;99.90
16408;DHT22;8313;49.894;8.084;2024-03-25T10:35:45;12.50;99.90
16408;DHT22;8313;49.894;8.084;2024-03-25T10:38:14;12.60;99.90
16408;DHT22;8313;49.894;8.084;2024-03-25T10:40:43;12.50;99.90
16408;DHT22;8313;49.894;8.084;2024-03-25T10:43:11;12.30;99.90
16408;DHT22;8313;49.894;8.084;2024-03-25T10:45:47;12.30;99.90
16408;DHT22;8313;49.894;8.084;2024-03-25T10:50:46;12.00;99.90
16408;DHT22;8313;49.894;8.084;2024-03-25T10:53:12;11.90;99.90
16408;DHT22;8313;49.894;8.084;2024-03-25T10:55:40;11.60;99.90
16408;DHT22;8313;49.894;8.084;2024-03-25T10:58:07;11.70;99.90
16408;DHT22;8313;49.894;8.084;2024-03-25T11:00:37;11.80;99.90
16408;DHT22;8313;49.894;8.084;2024-03-25T11:03:04;11.80;99.90
16408;DHT22;8313;49.894;8.084;2024-03-25T11:05:30;12.00;99.90
16408;DHT22;8313;49.894;8.084;2024-03-25T11:07:56;11.90;99.90
16408;DHT22;8313;49.894;8.084;2024-03-25T11:10:29;11.90;99.90
16408;DHT22;8313;49.894;8.084;2024-03-25T11:12:55;12.00;99.90
16408;DHT22;8313;49.894;8.084;2024-03-25T11:15:20;12.00;99.90
16408;DHT22;8313;49.894;8.084;2024-03-25T11:17:50;11.90;99.90
16408;DHT22;8313;49.894;8.084;2024-03-25T11:20:16;11.80;99.90
16408;DHT22;8313;49.894;8.084;2024-03-25T11:22:49;11.90;99.90
16408;DHT22;8313;49.894;8.084;2024-03-25T11:25:16;12.20;99.90
16408;DHT22;8313;49.894;8.084;2024-03-25T11:27:43;12.20;99.90
16408;DHT22;8313;49.894;8.084;2024-03-25T11:30:13;12.30;99.90
16408;DHT22;8313;49.894;8.084;2024-03-25T11:32:52;12.60;99.90
16408;DHT22;8313;49.894;8.084;2024-03-25T11:35:18;12.90;99.90
16408;DHT22;8313;49.894;8.084;2024-03-25T11:37:44;12.50;99.90
16408;DHT22;8313;49.894;8.084;2024-03-25T11:40:11;12.80;99.90
16408;DHT22;8313;49.894;8.084;2024-03-25T11:42:40;13.20;99.90
16408;DHT22;8313;49.894;8.084;2024-03-25T11:45:07;13.30;99.90
16408;DHT22;8313;49.894;8.084;2024-03-25T11:47:33;13.50;99.90
16408;DHT22;8313;49.894;8.084;2024-03-25T11:49:59;13.50;99.90
16408;DHT22;8313;49.894;8.084;2024-03-25T11:52:30;13.60;99.90
16408;DHT22;8313;49.894;8.084;2024-03-25T11:54:56;12.90;99.90
16408;DHT22;8313;49.894;8.084;2024-03-25T11:57:22;12.80;99.90
16408;DHT22;8313;49.894;8.084;2024-03-25T11:59:48;12.70;99.90
16408;DHT22;8313;49.894;8.084;2024-03-25T12:02:17;12.80;99.90
16408;DHT22;8313;49.894;8.084;2024-03-25T12:04:44;12.80;99.90
16408;DHT22;8313;49.894;8.084;2024-03-25T12:07:14;12.60;99.90
16408;DHT22;8313;49.894;8.084;2024-03-25T12:09:40;13.10;99.90
16408;DHT22;8313;49.894;8.084;2024-03-25T12:12:25;13.50;99.90
16408;DHT22;8313;49.894;8.084;2024-03-25T12:14:52;13.20;99.90
16408;DHT22;8313;49.894;8.084;2024-03-25T12:17:21;13.40;99.90
16408;DHT22;8313;49.894;8.084;2024-03-25T12:20:05;13.80;99.90
16408;DHT22;8313;49.894;8.084;2024-03-25T12:22:31;13.70;99.90
16408;DHT22;8313;49.894;8.084;2024-03-25T12:25:00;13.60;99.90
16408;DHT22;8313;49.894;8.084;2024-03-25T12:27:27;13.90;99.90
16408;DHT22;8313;49.894;8.084;2024-03-25T12:30:03;14.20;99.90
16408;DHT22;8313;49.894;8.084;2024-03-25T12:32:41;14.30;99.90
16408;DHT22;8313;49.894;8.084;2024-03-25T12:35:08;14.40;99.90
16408;DHT22;8313;49.894;8.084;2024-03-25T12:37:43;14.30;99.90
16408;DHT22;8313;49.894;8.084;2024-03-25T12:40:11;14.30;99.90
16408;DHT22;8313;49.894;8.084;2024-03-25T12:42:38;14.30;99.90
16408;DHT22;8313;49.894;8.084;2024-03-25T12:45:05;14.40;99.90
16408;DHT22;8313;49.894;8.084;2024-03-25T12:47:31;14.40;99.90
16408;DHT22;8313;49.894;8.084;2024-03-25T12:49:58;14.60;99.90
16408;DHT22;8313;49.894;8.084;2024-03-25T12:52:23;14.70;99.90
16408;DHT22;8313;49.894;8.084;2024-03-25T12:54:49;14.70;99.90
16408;DHT22;8313;49.894;8.084;2024-03-25T12:57:15;14.80;99.90
16408;DHT22;8313;49.894;8.084;2024-03-25T12:59:41;14.80;99.90
16408;DHT22;8313;49.894;8.084;2024-03-25T13:02:12;14.90;99.90
16408;DHT22;8313;49.894;8.084;2024-03-25T13:04:38;15.00;99.90
16408;DHT22;8313;49.894;8.084;2024-03-25T13:07:05;15.30;99.90
16408;DHT22;8313;49.894;8.084;2024-03-25T13:09:31;15.60;99.90
16408;DHT22;8313;49.894;8.084;2024-03-25T13:11:57;15.70;99.90
16408;DHT22;8313;49.894;8.084;2024-03-25T13:14:23;15.70;99.90
16408;DHT22;8313;49.894;8.084;2024-03-25T13:16:49;15.40;99.90
16408;DHT22;8313;49.894;8.084;2024-03-25T13:19:15;15.20;99.90
16408;DHT22;8313;49.894;8.084;2024-03-25T13:21:41;14.70;99.90
16408;DHT22;8313;49.894;8.084;2024-03-25T13:24:07;14.90;99.90
16408;DHT22;8313;49.894;8.084;2024-03-25T13:26:33;15.10;99.90
16408;DHT22;8313;49.894;8.084;2024-03-25T13:28:58;15.40;99.90
16408;DHT22;8313;49.894;8.084;2024-03-25T13:31:25;15.50;99.90
16408;DHT22;8313;49.894;8.084;2024-03-25T13:33:50;15.70;99.90
16408;DHT22;8313;49.894;8.084;2024-03-25T13:36:17;15.60;99.90
16408;DHT22;8313;49.894;8.084;2024-03-25T13:38:43;16.00;99.90
16408;DHT22;8313;49.894;8.084;2024-03-25T13:41:09;16.00;99.90
16408;DHT22;8313;49.894;8.084;2024-03-25T13:43:35;15.40;99.90
16408;DHT22;8313;49.894;8.084;2024-03-25T13:46:01;15.00;99.90
16408;DHT22;8313;49.894;8.084;2024-03-25T13:48:27;14.70;99.90
16408;DHT22;8313;49.894;8.084;2024-03-25T13:50:55;14.70;99.90
16408;DHT22;8313;49.894;8.084;2024-03-25T13:53:21;14.80;99.90
16408;DHT22;8313;49.894;8.084;2024-03-25T13:55:47;14.40;99.90
16408;DHT22;8313;49.894;8.084;2024-03-25T13:58:13;14.20;99.90
16408;DHT22;8313;49.894;8.084;2024-03-25T14:00:38;14.70;99.90
16408;DHT22;8313;49.894;8.084;2024-03-25T14:03:04;15.20;99.90
16408;DHT22;8313;49.894;8.084;2024-03-25T14:05:30;15.30;99.90
16408;DHT22;8313;49.894;8.084;2024-03-25T14:07:56;15.10;97.90
16408;DHT22;8313;49.894;8.084;2024-03-25T14:10:22;15.00;98.40
16408;DHT22;8313;49.894;8.084;2024-03-25T14:12:48;15.00;99.20
16408;DHT22;8313;49.894;8.084;2024-03-25T14:15:13;15.20;99.90
16408;DHT22;8313;49.894;8.084;2024-03-25T14:17:39;15.00;99.60
16408;DHT22;8313;49.894;8.084;2024-03-25T14:20:05;14.40;99.40
16408;DHT22;8313;49.894;8.084;2024-03-25T14:22:32;14.40;99.90
16408;DHT22;8313;49.894;8.084;2024-03-25T14:24:58;14.80;99.90
16408;DHT22;8313;49.894;8.084;2024-03-25T14:27:25;14.70;99.90
16408;DHT22;8313;49.894;8.084;2024-03-25T14:29:51;15.10;99.30
16408;DHT22;8313;49.894;8.084;2024-03-25T14:32:20;14.90;99.10
16408;DHT22;8313;49.894;8.084;2024-03-25T14:34:47;14.30;99.60
16408;DHT22;8313;49.894;8.084;2024-03-25T14:37:13;14.80;99.20
16408;DHT22;8313;49.894;8.084;2024-03-25T14:39:39;15.20;99.20
16408;DHT22;8313;49.894;8.084;2024-03-25T14:42:05;15.10;99.40
16408;DHT22;8313;49.894;8.084;2024-03-25T14:44:30;14.70;98.40
16408;DHT22;8313;49.894;8.084;2024-03-25T14:46:56;14.80;97.80
16408;DHT22;8313;49.894;8.084;2024-03-25T14:49:24;15.00;99.40
16408;DHT22;8313;49.894;8.084;2024-03-25T14:51:50;15.10;98.90
16408;DHT22;8313;49.894;8.084;2024-03-25T14:54:18;14.90;99.20
16408;DHT22;8313;49.894;8.084;2024-03-25T14:56:44;14.70;99.90
16408;DHT22;8313;49.894;8.084;2024-03-25T14:59:10;14.40;99.10
16408;DHT22;8313;49.894;8.084;2024-03-25T15:01:35;14.40;99.90
16408;DHT22;8313;49.894;8.084;2024-03-25T15:04:03;14.50;99.30
16408;DHT22;8313;49.894;8.084;2024-03-25T15:06:29;14.50;99.40
16408;DHT22;8313;49.894;8.084;2024-03-25T15:08:56;14.50;99.90
16408;DHT22;8313;49.894;8.084;2024-03-25T15:11:22;14.00;98.80
16408;DHT22;8313;49.894;8.084;2024-03-25T15:13:47;13.70;99.00
16408;DHT22;8313;49.894;8.084;2024-03-25T15:16:13;14.20;99.40
16408;DHT22;8313;49.894;8.084;2024-03-25T15:18:39;14.50;98.20
16408;DHT22;8313;49.894;8.084;2024-03-25T15:21:05;14.40;98.50
16408;DHT22;8313;49.894;8.084;2024-03-25T15:23:31;14.30;98.70
16408;DHT22;8313;49.894;8.084;2024-03-25T15:25:58;14.20;98.80
16408;DHT22;8313;49.894;8.084;2024-03-25T15:28:24;14.10;98.50
16408;DHT22;8313;49.894;8.084;2024-03-25T15:30:50;14.30;98.30
16408;DHT22;8313;49.894;8.084;2024-03-25T15:33:17;14.40;97.40
16408;DHT22;8313;49.894;8.084;2024-03-25T15:35:45;14.30;96.70
16408;DHT22;8313;49.894;8.084;2024-03-25T15:38:11;14.30;96.10
16408;DHT22;8313;49.894;8.084;2024-03-25T15:40:37;14.40;97.00
16408;DHT22;8313;49.894;8.084;2024-03-25T15:43:03;14.60;98.60
16408;DHT22;8313;49.894;8.084;2024-03-25T15:45:29;14.80;98.70
16408;DHT22;8313;49.894;8.084;2024-03-25T15:47:55;14.80;98.40
16408;DHT22;8313;49.894;8.084;2024-03-25T15:50:21;14.80;97.70
16408;DHT22;8313;49.894;8.084;2024-03-25T15:52:48;14.50;97.70
16408;DHT22;8313;49.894;8.084;2024-03-25T15:55:14;14.30;97.80
16408;DHT22;8313;49.894;8.084;2024-03-25T15:57:40;14.30;98.40
16408;DHT22;8313;49.894;8.084;2024-03-25T16:00:06;14.20;97.80